Portada
METAR-TAF:

METAR-TAF

Aeroports :

Kaunakakai, Hawaii, Estats Units d'Amèrica

latitud: 21-09N, longitud: 157-06W, altitud: 138 m

Observació

L'informe es va fer fa 58 minuts, a les 17:54 UTC
Vent calma
Temperatura 23°C
Humitat 69%
Pressió 1016 hPa
Visibilitat: 16.1 km
Cel clar

METAR: PHMK 041754Z 00000KT 10SM CLR 23/17 A3001 RMK AO2 SLP165 T02330167 10233 20183 53010 $

Hora: 08:52 (18:52 UTC)

Pronòstic

L'informe es va fer fa 1 hora i 12 minuts, a les 17:40 UTC
Pronòstic vàlid del 04 a les 18 UTC al 05 a les 18 UTC
Vent 6 kt del Est/Nord-Est
Visibilitat: 10 km
Escasses núvols a una alçada de 4000 ft
A partir de les 04 a les 2000 UTC
Vent 10 kt del Est/Nord-Est
Visibilitat: 10 km
Cel ennuvolat a una alçada de 3500 ft
A partir de les 05 a les 0500 UTC
Vent 6 kt del Est/Nord-Est
Visibilitat: 10 km
Escasses núvols a una alçada de 4000 ft

TAF: PHMK 041740Z 0418/0518 06006KT P6SM FEW040 FM042000 07010KT P6SM BKN035 FM050500 06006KT P6SM FEW040

Observacions i pronòstics meteorològics de més de 4000 aeroports (METAR i TAF).

Les estacions disponibles són els punts grocs i vermells al mapa.

Posi el ratolí al punt desitjat per veure el nom de l'estació.

Feu clic per veure les observacions i els pronòstics meteorològics.

Per canviar el mapa: feu clic els botons verds amb una creu de color negre per apropar; al botó verd amb un guió per allunyar la imatge; o en les fletxes verdes per a mapes adjacents.


METAR-TAF: